createdAt,value
2023-01-28T02:04:24.233Z,77.15
2023-01-28T02:09:36.497Z,77.45
2023-01-28T02:14:52.808Z,77.50
2023-01-28T02:20:07.580Z,77.54
2023-01-28T02:26:12.382Z,77.51
2023-01-28T02:31:30.577Z,77.42
2023-01-28T02:36:47.397Z,77.42
2023-01-28T02:42:02.917Z,77.47
2023-01-28T02:47:33.266Z,77.40
2023-01-28T02:53:21.228Z,77.36
2023-01-28T02:58:42.047Z,77.24
2023-01-28T03:04:05.044Z,77.44
2023-01-28T03:09:27.378Z,77.32
2023-01-28T03:14:57.828Z,77.31
2023-01-28T03:20:27.247Z,77.42
2023-01-28T03:25:57.823Z,77.52
2023-01-28T03:31:31.945Z,77.57
2023-01-28T03:36:51.932Z,77.48
2023-01-28T03:42:11.582Z,77.38
2023-01-28T03:47:22.302Z,77.32
2023-01-28T03:52:34.474Z,77.19
2023-01-28T03:57:45.208Z,77.21
2023-01-28T04:02:55.038Z,77.36
2023-01-28T04:08:05.210Z,77.30
2023-01-28T04:13:14.790Z,77.55
2023-01-28T04:18:27.650Z,77.64
2023-01-28T04:23:37.413Z,77.66
2023-01-28T04:28:47.033Z,77.54
2023-01-28T04:33:56.630Z,77.54
2023-01-28T04:39:07.251Z,77.43
2023-01-28T04:44:17.508Z,77.50
2023-01-28T04:49:27.994Z,77.25
2023-01-28T04:54:37.987Z,77.42
2023-01-28T04:59:47.623Z,77.39
2023-01-28T05:04:57.323Z,77.33
2023-01-28T05:10:08.225Z,77.36
2023-01-28T05:15:19.036Z,77.39
2023-01-28T05:20:29.168Z,77.36
2023-01-28T05:25:38.694Z,77.51
2023-01-28T05:30:48.504Z,77.27
2023-01-28T05:35:58.392Z,77.42
2023-01-28T05:41:08.264Z,77.47
2023-01-28T05:46:17.876Z,77.47
2023-01-28T05:51:27.682Z,77.42
2023-01-28T05:56:37.545Z,77.35
2023-01-28T06:01:47.132Z,77.33
2023-01-28T06:06:57.172Z,77.26
2023-01-28T06:12:07.688Z,77.33
2023-01-28T06:17:17.505Z,77.37
2023-01-28T06:22:27.248Z,77.37
2023-01-28T06:27:37.040Z,77.39
2023-01-28T06:32:46.908Z,77.54
2023-01-28T06:37:58.094Z,77.33
2023-01-28T06:43:08.586Z,77.10
2023-01-28T06:48:18.448Z,77.05
2023-01-28T06:53:28.191Z,76.93
2023-01-28T06:58:38.165Z,76.83
2023-01-28T07:03:47.976Z,76.83
2023-01-28T07:08:57.795Z,76.86
2023-01-28T07:14:07.731Z,76.96
2023-01-28T07:19:17.318Z,76.64
2023-01-28T07:24:27.110Z,76.61
2023-01-28T07:29:36.783Z,76.56
2023-01-28T07:34:46.714Z,76.37
2023-01-28T07:39:56.331Z,76.28
2023-01-28T07:45:06.708Z,76.24
2023-01-28T07:50:17.512Z,76.11
2023-01-28T07:55:30.230Z,76.26
2023-01-28T08:00:42.439Z,75.96
2023-01-28T08:05:55.226Z,75.93
2023-01-28T08:11:11.065Z,75.55
2023-01-28T08:16:20.874Z,75.51
2023-01-28T08:21:30.447Z,75.42
2023-01-28T08:26:40.064Z,74.88
2023-01-28T08:31:49.927Z,75.01
2023-01-28T08:36:59.903Z,75.06
2023-01-28T08:42:10.303Z,74.93
2023-01-28T08:47:20.610Z,75.01
2023-01-28T08:52:30.186Z,74.50
2023-01-28T08:57:40.089Z,74.53
2023-01-28T09:02:52.348Z,74.64
2023-01-28T09:08:04.689Z,74.54
2023-01-28T09:13:16.179Z,74.11
2023-01-28T09:18:25.742Z,74.04
2023-01-28T09:23:37.541Z,73.92
2023-01-28T09:28:49.042Z,73.57
2023-01-28T09:33:58.802Z,73.35
2023-01-28T09:39:10.793Z,73.43
2023-01-28T09:44:43.961Z,73.48
2023-01-28T09:49:59.527Z,73.15
2023-01-28T09:55:16.899Z,73.15
2023-01-28T10:00:36.925Z,72.91
2023-01-28T10:05:59.016Z,72.76
2023-01-28T10:11:22.616Z,72.58
2023-01-28T10:16:42.620Z,72.29
2023-01-28T10:21:57.610Z,72.10
2023-01-28T10:27:16.174Z,72.07
2023-01-28T10:32:34.417Z,71.79
2023-01-28T10:37:45.564Z,72.11
2023-01-28T10:42:55.351Z,72.15
2023-01-28T10:48:18.457Z,72.06
2023-01-28T10:53:41.086Z,71.99
2023-01-28T10:59:02.363Z,72.04
2023-01-28T11:04:25.535Z,71.86
2023-01-28T11:09:38.533Z,71.81
2023-01-28T11:14:56.616Z,71.88
2023-01-28T11:20:21.450Z,71.84
2023-01-28T11:25:36.480Z,71.95
2023-01-28T11:30:51.754Z,72.24
2023-01-28T11:36:13.675Z,72.07
2023-01-28T11:41:31.124Z,71.92
2023-01-28T11:47:21.238Z,71.93
2023-01-28T11:53:05.860Z,71.86
2023-01-28T11:58:32.837Z,71.76
2023-01-28T12:04:06.071Z,71.59
2023-01-28T12:09:31.106Z,70.99
2023-01-28T12:15:03.300Z,70.18
2023-01-28T12:20:26.061Z,70.28
2023-01-28T12:26:00.603Z,70.57
2023-01-28T12:31:34.635Z,70.26
2023-01-28T12:37:01.810Z,69.88
2023-01-28T12:42:20.688Z,69.88
2023-01-28T12:47:40.315Z,70.08
2023-01-28T12:52:55.192Z,70.11
2023-01-28T12:58:07.525Z,69.94
2023-01-28T13:03:32.390Z,69.79
2023-01-28T13:08:42.507Z,69.86
2023-01-28T13:13:53.036Z,69.93
2023-01-28T13:19:24.868Z,70.18
2023-01-28T13:24:38.029Z,69.78
2023-01-28T13:30:04.831Z,69.83
2023-01-28T13:35:37.656Z,69.61
2023-01-28T13:40:57.677Z,69.68
2023-01-28T13:46:10.625Z,68.79
2023-01-28T13:51:28.822Z,69.17
2023-01-28T13:57:04.216Z,69.33
2023-01-28T14:03:08.960Z,69.05
2023-01-28T14:09:04.802Z,69.17
2023-01-28T14:14:40.368Z,69.15
2023-01-28T14:19:52.397Z,69.03
2023-01-28T14:25:13.858Z,69.31
2023-01-28T14:30:37.580Z,69.15
2023-01-28T14:35:52.156Z,68.90
2023-01-28T14:41:02.179Z,69.39
2023-01-28T14:46:28.038Z,69.67
2023-01-28T14:52:21.991Z,69.75
2023-01-28T14:57:50.201Z,69.61
2023-01-28T15:03:00.410Z,69.32
2023-01-28T15:08:20.870Z,69.47
2023-01-28T15:13:36.167Z,69.62
2023-01-28T15:18:48.510Z,69.77
2023-01-28T15:24:03.548Z,69.79
2023-01-28T15:29:33.579Z,69.36
2023-01-28T15:34:50.780Z,69.24
2023-01-28T15:40:23.385Z,69.23
2023-01-28T15:45:36.289Z,69.20
2023-01-28T15:50:46.921Z,67.99
2023-01-28T15:56:08.777Z,68.28
2023-01-28T16:01:25.773Z,68.82
2023-01-28T16:06:43.031Z,68.35
2023-01-28T16:11:52.954Z,68.21
2023-01-28T16:17:03.050Z,68.64
2023-01-28T16:22:23.229Z,68.82
2023-01-28T16:27:33.808Z,68.89
2023-01-28T16:32:44.977Z,69.11
2023-01-28T16:37:54.793Z,68.97
2023-01-28T16:43:04.425Z,68.89
2023-01-28T16:48:14.592Z,69.03
2023-01-28T16:53:32.876Z,69.21
2023-01-28T16:58:42.680Z,69.34
2023-01-28T17:03:52.394Z,69.15
2023-01-28T17:09:02.368Z,69.39
2023-01-28T17:14:13.083Z,69.49
2023-01-28T17:19:23.022Z,69.42
2023-01-28T17:24:34.359Z,69.69
2023-01-28T17:29:44.298Z,69.87
2023-01-28T17:34:54.237Z,69.86
2023-01-28T17:40:04.346Z,69.82
2023-01-28T17:45:15.007Z,69.93
2023-01-28T17:50:24.896Z,70.01
2023-01-28T17:55:36.504Z,70.04
2023-01-28T18:00:46.126Z,70.04
2023-01-28T18:06:04.700Z,70.01
2023-01-28T18:11:17.769Z,70.06
2023-01-28T18:16:27.836Z,70.18
2023-01-28T18:21:56.931Z,70.21
2023-01-28T18:27:07.509Z,70.25
2023-01-28T18:32:17.595Z,70.41
2023-01-28T18:37:27.239Z,70.67
2023-01-28T18:42:38.231Z,70.78
2023-01-28T18:47:48.361Z,70.84
2023-01-28T18:53:00.222Z,70.85
2023-01-28T18:58:10.133Z,70.97
2023-01-28T19:03:20.255Z,71.04
2023-01-28T19:08:30.103Z,71.22
2023-01-28T19:13:39.943Z,71.37
2023-01-28T19:18:55.578Z,71.43
2023-01-28T19:24:10.022Z,71.64
2023-01-28T19:29:20.436Z,71.75
2023-01-28T19:34:31.736Z,71.81
2023-01-28T19:39:41.885Z,71.88
2023-01-28T19:44:51.629Z,72.06
2023-01-28T19:50:01.774Z,72.11
2023-01-28T19:55:13.953Z,72.31
2023-01-28T20:00:24.535Z,72.40
2023-01-28T20:05:34.195Z,72.43
2023-01-28T20:10:43.942Z,72.44
2023-01-28T20:15:53.763Z,72.58
2023-01-28T20:21:05.266Z,72.73
2023-01-28T20:26:15.202Z,72.90
2023-01-28T20:31:25.526Z,72.77
2023-01-28T20:36:35.548Z,72.94
2023-01-28T20:41:45.241Z,72.89
2023-01-28T20:46:54.992Z,72.99
2023-01-28T20:52:04.674Z,72.96
2023-01-28T20:57:14.420Z,73.07
2023-01-28T21:02:24.535Z,73.27
2023-01-28T21:07:34.394Z,73.46
2023-01-28T21:12:44.081Z,73.46
2023-01-28T21:17:54.302Z,73.63
2023-01-28T21:23:04.113Z,73.76
2023-01-28T21:28:14.597Z,73.79
2023-01-28T21:33:24.286Z,73.79
2023-01-28T21:38:34.131Z,73.84
2023-01-28T21:43:44.159Z,73.87
2023-01-28T21:48:57.280Z,73.91
2023-01-28T21:54:08.334Z,74.00
2023-01-28T21:59:32.835Z,74.01
2023-01-28T22:04:46.514Z,74.25
2023-01-28T22:09:56.704Z,74.60
2023-01-28T22:15:07.037Z,74.76
2023-01-28T22:20:18.254Z,74.86
2023-01-28T22:25:28.197Z,75.20
2023-01-28T22:30:37.988Z,75.43
2023-01-28T22:35:47.931Z,75.47
2023-01-28T22:40:57.579Z,75.67
2023-01-28T22:46:08.575Z,75.79
2023-01-28T22:51:22.507Z,75.82
2023-01-28T22:56:33.638Z,75.95
2023-01-28T23:01:43.398Z,76.11
2023-01-28T23:06:53.193Z,76.26
2023-01-28T23:12:02.847Z,76.36
2023-01-28T23:17:31.990Z,76.43
2023-01-28T23:22:59.416Z,76.55
2023-01-28T23:28:09.524Z,76.61
2023-01-28T23:33:19.267Z,76.52
2023-01-28T23:38:29.187Z,76.34
2023-01-28T23:43:38.917Z,76.42
2023-01-28T23:48:48.655Z,76.52
2023-01-28T23:53:58.431Z,76.46
2023-01-28T23:59:08.072Z,76.56
